Nada, Texas
Current Conditions -  °F | °C
As of 10:35 PM on Wednesday 26 Nov 2014 (Local Time) from KELA Reporting Station
Clear Clear  
Wind Chill: 53°   Ceiling: Unl
Heat Index: 53°   Visibility: 10mi
Dew Point: 46°   Wind: 3mph
Humidity: 79%   Direction: 240°WSW
Pressure: 30.3"   Gusts: NA
Location:  29.41°N, 96.39°W
Report Text: KELA 270435Z AUTO 24003KT 10SM CLR 12/08 A3030 RMK AO2 T01160080
Loading
Personal Weather Stations






























Interactive Weather Map New forecast layout! Learn more

10-Day Weather Forecast

Advertisements
Track Severe Weather on mobile